createdAt,value
2022-08-21T00:00:42.312Z,996.17
2022-08-21T00:01:39.053Z,996.18
2022-08-21T00:02:39.045Z,996.22
2022-08-21T00:03:38.903Z,996.17
2022-08-21T00:04:38.849Z,996.18
2022-08-21T00:05:38.848Z,996.21
2022-08-21T00:06:38.726Z,996.16
2022-08-21T00:07:38.644Z,996.18
2022-08-21T00:08:38.578Z,996.13
2022-08-21T00:09:38.529Z,996.18
2022-08-21T00:10:38.462Z,996.14
2022-08-21T00:11:39.930Z,996.13
2022-08-21T00:12:38.354Z,996.10
2022-08-21T00:13:38.255Z,996.15
2022-08-21T00:14:38.269Z,996.15
2022-08-21T00:15:38.133Z,996.13
2022-08-21T00:16:38.085Z,996.11
2022-08-21T00:17:38.018Z,996.12
2022-08-21T00:18:37.950Z,996.12
2022-08-21T00:19:37.889Z,996.11
2022-08-21T00:20:37.823Z,996.09
2022-08-21T00:21:37.750Z,996.10
2022-08-21T00:22:37.688Z,996.07
2022-08-21T00:23:38.431Z,996.06
2022-08-21T00:24:37.549Z,996.05
2022-08-21T00:25:37.506Z,996.00
2022-08-21T00:26:37.440Z,995.99
2022-08-21T00:27:37.375Z,996.01
2022-08-21T00:28:37.299Z,995.99
2022-08-21T00:29:37.245Z,996.00
2022-08-21T00:30:37.184Z,996.01
2022-08-21T00:31:37.113Z,996.01
2022-08-21T00:32:37.036Z,996.03
2022-08-21T00:33:36.973Z,996.01
2022-08-21T00:34:36.912Z,996.02
2022-08-21T00:35:38.396Z,996.02
2022-08-21T00:36:36.787Z,995.99
2022-08-21T00:37:36.728Z,995.99
2022-08-21T00:38:36.676Z,996.00
2022-08-21T00:39:36.591Z,995.96
2022-08-21T00:40:36.539Z,995.97
2022-08-21T00:41:38.738Z,995.90
2022-08-21T00:42:36.396Z,995.91
2022-08-21T00:43:36.332Z,995.96
2022-08-21T00:44:36.285Z,995.93
2022-08-21T00:45:36.226Z,995.93
2022-08-21T00:46:36.174Z,995.93
2022-08-21T00:47:36.106Z,995.92
2022-08-21T00:48:36.029Z,995.89
2022-08-21T00:49:35.966Z,995.90
2022-08-21T00:50:35.901Z,995.89
2022-08-21T00:51:38.261Z,995.89
2022-08-21T00:52:35.769Z,995.89
2022-08-21T00:53:38.034Z,995.93
2022-08-21T00:54:35.606Z,995.90
2022-08-21T00:55:35.576Z,995.90
2022-08-21T00:56:35.522Z,995.88
2022-08-21T00:57:35.465Z,995.89
2022-08-21T00:58:35.378Z,995.87
2022-08-21T00:59:35.327Z,995.89
2022-08-21T01:00:35.263Z,995.88
2022-08-21T01:01:35.280Z,995.91
2022-08-21T01:02:35.129Z,995.87
2022-08-21T01:03:35.068Z,995.90
2022-08-21T01:04:34.999Z,995.88
2022-08-21T01:05:34.952Z,995.91
2022-08-21T01:06:34.879Z,995.91
2022-08-21T01:07:34.830Z,995.91
2022-08-21T01:08:34.729Z,995.93
2022-08-21T01:09:34.644Z,995.95
2022-08-21T01:10:34.599Z,995.95
2022-08-21T01:11:35.651Z,995.95
2022-08-21T01:12:34.488Z,995.94
2022-08-21T01:13:34.409Z,996.00
2022-08-21T01:14:34.360Z,995.95
2022-08-21T01:15:34.294Z,995.97
2022-08-21T01:16:34.233Z,995.93
2022-08-21T01:17:35.366Z,995.95
2022-08-21T01:18:34.087Z,995.96
2022-08-21T01:19:34.036Z,995.93
2022-08-21T01:20:33.980Z,995.97
2022-08-21T01:21:33.901Z,995.92
2022-08-21T01:22:33.839Z,995.93
2022-08-21T01:23:34.550Z,995.88
2022-08-21T01:24:33.718Z,995.93
2022-08-21T01:25:33.637Z,995.89
2022-08-21T01:26:34.557Z,995.89
2022-08-21T01:27:33.531Z,995.88
2022-08-21T01:28:33.471Z,995.92
2022-08-21T01:29:33.669Z,995.91
2022-08-21T01:30:33.318Z,995.90
2022-08-21T01:31:33.267Z,995.93
2022-08-21T01:32:33.191Z,995.90
2022-08-21T01:33:33.139Z,995.95
2022-08-21T01:34:33.068Z,995.94
2022-08-21T01:35:33.028Z,995.92
2022-08-21T01:36:32.938Z,995.97
2022-08-21T01:37:32.881Z,995.92
2022-08-21T01:38:32.812Z,995.95
2022-08-21T01:39:32.760Z,995.95
2022-08-21T01:40:32.679Z,995.97
2022-08-21T01:41:34.174Z,995.95
2022-08-21T01:42:32.551Z,995.94
2022-08-21T01:43:39.136Z,995.95
2022-08-21T01:44:32.423Z,995.94
2022-08-21T01:45:32.373Z,995.96
2022-08-21T01:46:32.311Z,995.98
2022-08-21T01:47:32.237Z,996.02
2022-08-21T01:48:32.175Z,996.01
2022-08-21T01:49:32.121Z,995.96
2022-08-21T01:50:32.106Z,995.91
2022-08-21T01:51:31.986Z,995.96
2022-08-21T01:52:31.908Z,995.96
2022-08-21T01:53:33.066Z,995.95
2022-08-21T01:54:31.781Z,995.91
2022-08-21T01:55:31.714Z,995.95
2022-08-21T01:56:31.649Z,995.93
2022-08-21T01:57:31.593Z,995.96
2022-08-21T01:58:31.562Z,995.92
2022-08-21T01:59:31.475Z,995.96
2022-08-21T02:00:31.393Z,995.94
2022-08-21T02:01:31.342Z,995.90
2022-08-21T02:02:31.282Z,995.91
2022-08-21T02:03:35.741Z,995.93
2022-08-21T02:04:31.185Z,995.90
2022-08-21T02:05:31.097Z,995.89
2022-08-21T02:06:31.022Z,995.92
2022-08-21T02:07:30.952Z,995.88
2022-08-21T02:08:30.899Z,995.92
2022-08-21T02:09:30.830Z,995.86
2022-08-21T02:10:30.746Z,995.85
2022-08-21T02:11:31.484Z,995.84
2022-08-21T02:12:30.619Z,995.87
2022-08-21T02:13:30.557Z,995.85
2022-08-21T02:14:32.609Z,995.80
2022-08-21T02:15:30.441Z,995.80
2022-08-21T02:16:30.359Z,995.78
2022-08-21T02:17:30.334Z,995.82
2022-08-21T02:18:30.251Z,995.77
2022-08-21T02:19:30.176Z,995.75
2022-08-21T02:20:30.123Z,995.76
2022-08-21T02:21:30.062Z,995.76
2022-08-21T02:22:29.985Z,995.73
2022-08-21T02:23:31.448Z,995.73
2022-08-21T02:24:29.853Z,995.72
2022-08-21T02:25:29.803Z,995.69
2022-08-21T02:26:29.752Z,995.68
2022-08-21T02:27:29.675Z,995.66
2022-08-21T02:28:29.594Z,995.64
2022-08-21T02:29:30.320Z,995.64
2022-08-21T02:30:29.463Z,995.64
2022-08-21T02:31:29.398Z,995.64
2022-08-21T02:32:29.331Z,995.64
2022-08-21T02:33:29.272Z,995.63
2022-08-21T02:34:29.209Z,995.69
2022-08-21T02:35:30.202Z,995.62
2022-08-21T02:36:29.091Z,995.65
2022-08-21T02:37:29.015Z,995.64
2022-08-21T02:38:28.961Z,995.66
2022-08-21T02:39:28.886Z,995.63
2022-08-21T02:40:28.831Z,995.64
2022-08-21T02:41:28.765Z,995.68
2022-08-21T02:42:28.712Z,995.70
2022-08-21T02:43:28.630Z,995.69
2022-08-21T02:44:30.121Z,995.70
2022-08-21T02:45:28.510Z,995.68
2022-08-21T02:46:28.443Z,995.67
2022-08-21T02:47:29.170Z,995.69
2022-08-21T02:48:28.310Z,995.62
2022-08-21T02:49:28.256Z,995.65
2022-08-21T02:50:28.188Z,995.64
2022-08-21T02:51:28.108Z,995.64
2022-08-21T02:52:28.063Z,995.62
2022-08-21T02:53:28.789Z,995.65
2022-08-21T02:54:27.919Z,995.64
2022-08-21T02:55:27.870Z,995.63
2022-08-21T02:56:28.000Z,995.63
2022-08-21T02:57:27.740Z,995.60
2022-08-21T02:58:27.661Z,995.61
2022-08-21T02:59:29.151Z,995.62
2022-08-21T03:00:27.532Z,995.61
2022-08-21T03:01:27.497Z,995.59
2022-08-21T03:02:27.433Z,995.59
2022-08-21T03:03:27.342Z,995.61
2022-08-21T03:04:27.292Z,995.61
2022-08-21T03:05:27.230Z,995.61
2022-08-21T03:06:27.142Z,995.61
2022-08-21T03:07:27.097Z,995.61
2022-08-21T03:08:27.696Z,995.60
2022-08-21T03:09:26.955Z,995.59
2022-08-21T03:10:26.923Z,995.62
2022-08-21T03:11:28.399Z,995.62
2022-08-21T03:12:27.815Z,995.56
2022-08-21T03:13:26.709Z,995.57
2022-08-21T03:14:26.631Z,995.55
2022-08-21T03:15:26.579Z,995.56
2022-08-21T03:16:26.518Z,995.56
2022-08-21T03:17:29.430Z,995.58
2022-08-21T03:18:26.372Z,995.55
2022-08-21T03:19:26.335Z,995.59
2022-08-21T03:20:26.253Z,995.61
2022-08-21T03:21:26.192Z,995.59
2022-08-21T03:22:26.114Z,995.64
2022-08-21T03:23:26.082Z,995.61
2022-08-21T03:24:25.957Z,995.61
2022-08-21T03:25:39.962Z,995.65
2022-08-21T03:26:27.907Z,995.64
2022-08-21T03:27:25.784Z,995.64
2022-08-21T03:28:25.700Z,995.63
2022-08-21T03:29:27.928Z,995.60
2022-08-21T03:30:25.605Z,995.65
2022-08-21T03:31:25.565Z,995.67
2022-08-21T03:32:25.491Z,995.69
2022-08-21T03:33:25.403Z,995.70
2022-08-21T03:34:25.359Z,995.71
2022-08-21T03:35:26.058Z,995.71
2022-08-21T03:36:25.232Z,995.71
2022-08-21T03:37:25.151Z,995.70
2022-08-21T03:38:26.765Z,995.70
2022-08-21T03:39:25.048Z,995.78
2022-08-21T03:40:24.960Z,995.72
2022-08-21T03:41:26.121Z,995.76
2022-08-21T03:42:24.844Z,995.76
2022-08-21T03:43:24.766Z,995.78
2022-08-21T03:44:24.715Z,995.81
2022-08-21T03:45:24.637Z,995.77
2022-08-21T03:46:24.592Z,995.77
2022-08-21T03:47:24.525Z,995.79
2022-08-21T03:48:24.452Z,995.81
2022-08-21T03:49:24.332Z,995.79
2022-08-21T03:50:24.263Z,995.74
2022-08-21T03:51:24.192Z,995.78
2022-08-21T03:52:24.142Z,995.76
2022-08-21T03:53:26.366Z,995.80
2022-08-21T03:54:23.993Z,995.81
2022-08-21T03:55:23.953Z,995.89
2022-08-21T03:56:23.878Z,995.83
2022-08-21T03:57:23.802Z,995.86
2022-08-21T03:58:23.769Z,995.87
2022-08-21T03:59:23.687Z,995.83
2022-08-21T04:00:23.626Z,995.86
2022-08-21T04:01:23.587Z,995.82
2022-08-21T04:02:23.490Z,995.88
2022-08-21T04:03:23.417Z,995.89
2022-08-21T04:04:23.393Z,995.91
2022-08-21T04:05:23.300Z,995.95
2022-08-21T04:06:23.228Z,995.97
2022-08-21T04:07:23.176Z,995.94
2022-08-21T04:08:23.115Z,995.99
2022-08-21T04:09:23.035Z,996.02
2022-08-21T04:10:22.980Z,996.02
2022-08-21T04:11:22.935Z,996.04
2022-08-21T04:12:22.855Z,996.05
2022-08-21T04:13:22.787Z,996.05
2022-08-21T04:14:22.706Z,996.03
2022-08-21T04:15:22.652Z,996.05
2022-08-21T04:16:22.583Z,996.02
2022-08-21T04:17:22.545Z,996.00
2022-08-21T04:18:22.460Z,996.05
2022-08-21T04:19:22.393Z,996.09
2022-08-21T04:20:22.332Z,996.08
2022-08-21T04:21:24.277Z,996.07
2022-08-21T04:22:22.201Z,996.04
2022-08-21T04:23:23.900Z,996.09
2022-08-21T04:24:22.056Z,996.12
2022-08-21T04:25:22.011Z,996.10
2022-08-21T04:26:21.928Z,996.11
2022-08-21T04:27:21.915Z,996.12
2022-08-21T04:28:21.805Z,996.12
2022-08-21T04:29:21.759Z,996.12
2022-08-21T04:30:21.679Z,996.12
2022-08-21T04:31:21.620Z,996.15
2022-08-21T04:32:21.547Z,996.11
2022-08-21T04:33:21.484Z,996.13
2022-08-21T04:34:21.433Z,996.11
2022-08-21T04:35:21.372Z,996.11
2022-08-21T04:36:23.018Z,996.13
2022-08-21T04:37:21.232Z,996.11
2022-08-21T04:38:21.160Z,996.14
2022-08-21T04:39:21.093Z,996.13
2022-08-21T04:40:21.114Z,996.12
2022-08-21T04:41:27.883Z,996.17
2022-08-21T04:42:20.901Z,996.16
2022-08-21T04:43:20.833Z,996.22
2022-08-21T04:44:20.767Z,996.22
2022-08-21T04:45:20.707Z,996.22
2022-08-21T04:46:20.639Z,996.23
2022-08-21T04:47:20.610Z,996.24
2022-08-21T04:48:20.514Z,996.26
2022-08-21T04:49:20.462Z,996.24
2022-08-21T04:50:20.393Z,996.27
2022-08-21T04:51:20.326Z,996.28
2022-08-21T04:52:20.266Z,996.24
2022-08-21T04:53:21.392Z,996.28
2022-08-21T04:54:20.135Z,996.29
2022-08-21T04:55:20.081Z,996.30
2022-08-21T04:56:19.998Z,996.32
2022-08-21T04:57:19.927Z,996.30
2022-08-21T04:58:19.878Z,996.33
2022-08-21T04:59:19.840Z,996.34
2022-08-21T05:00:20.056Z,996.33
2022-08-21T05:01:19.761Z,996.35
2022-08-21T05:02:19.622Z,996.34
2022-08-21T05:03:19.627Z,996.32
2022-08-21T05:04:19.495Z,996.27
2022-08-21T05:05:20.218Z,996.31
2022-08-21T05:06:19.361Z,996.34
2022-08-21T05:07:19.288Z,996.32
2022-08-21T05:08:19.241Z,996.34
2022-08-21T05:09:19.162Z,996.32
2022-08-21T05:10:19.109Z,996.33
2022-08-21T05:11:19.046Z,996.30
2022-08-21T05:12:18.995Z,996.31
2022-08-21T05:13:18.894Z,996.31
2022-08-21T05:14:18.844Z,996.35
2022-08-21T05:15:18.768Z,996.35
2022-08-21T05:16:36.501Z,996.36
2022-08-21T05:17:18.927Z,996.39
2022-08-21T05:18:18.577Z,996.43
2022-08-21T05:19:18.512Z,996.41
2022-08-21T05:20:18.447Z,996.39
2022-08-21T05:21:18.399Z,996.42
2022-08-21T05:22:18.331Z,996.38
2022-08-21T05:23:19.036Z,996.42
2022-08-21T05:24:18.184Z,996.44
2022-08-21T05:25:18.117Z,996.44
2022-08-21T05:26:18.827Z,996.39
2022-08-21T05:27:18.004Z,996.40
2022-08-21T05:28:17.948Z,996.37
2022-08-21T05:29:18.892Z,996.42
2022-08-21T05:30:17.822Z,996.40
2022-08-21T05:31:17.756Z,996.38
2022-08-21T05:32:17.688Z,996.35
2022-08-21T05:33:17.623Z,996.37
2022-08-21T05:34:17.545Z,996.39
2022-08-21T05:35:18.270Z,996.33
2022-08-21T05:36:17.417Z,996.34
2022-08-21T05:37:17.362Z,996.33
2022-08-21T05:38:18.484Z,996.38
2022-08-21T05:39:17.224Z,996.41
2022-08-21T05:40:21.236Z,996.45
2022-08-21T05:41:17.131Z,996.44
2022-08-21T05:42:17.024Z,996.48
2022-08-21T05:43:16.978Z,996.43
2022-08-21T05:44:16.905Z,996.39
2022-08-21T05:45:16.841Z,996.41
2022-08-21T05:46:16.790Z,996.41
2022-08-21T05:47:17.506Z,996.40
2022-08-21T05:48:16.655Z,996.41
2022-08-21T05:49:16.587Z,996.48
2022-08-21T05:50:16.558Z,996.48
2022-08-21T05:51:16.448Z,996.48
2022-08-21T05:52:16.398Z,996.48
2022-08-21T05:53:16.343Z,996.52
2022-08-21T05:54:16.249Z,996.49
2022-08-21T05:55:16.193Z,996.52
2022-08-21T05:56:16.147Z,996.51
2022-08-21T05:57:16.062Z,996.59
2022-08-21T05:58:15.997Z,996.57
2022-08-21T05:59:17.462Z,996.52
2022-08-21T06:00:15.885Z,996.51
2022-08-21T06:01:15.896Z,996.50
2022-08-21T06:02:15.735Z,996.47
2022-08-21T06:03:15.697Z,996.49
2022-08-21T06:04:15.628Z,996.52
2022-08-21T06:05:16.607Z,996.50
2022-08-21T06:06:15.502Z,996.51
2022-08-21T06:07:15.414Z,996.53
2022-08-21T06:08:15.370Z,996.56
2022-08-21T06:09:15.289Z,996.49
2022-08-21T06:10:15.243Z,996.48
2022-08-21T06:11:15.181Z,996.42
2022-08-21T06:12:15.095Z,996.40
2022-08-21T06:13:15.056Z,996.46
2022-08-21T06:14:14.981Z,996.45
2022-08-21T06:15:14.912Z,996.43
2022-08-21T06:16:16.162Z,996.43
2022-08-21T06:17:17.190Z,996.44
2022-08-21T06:18:14.726Z,996.43
2022-08-21T06:19:14.646Z,996.41
2022-08-21T06:20:14.582Z,996.46
2022-08-21T06:21:14.658Z,996.45
2022-08-21T06:22:14.458Z,996.49
2022-08-21T06:23:14.409Z,996.50
2022-08-21T06:24:14.335Z,996.49
2022-08-21T06:25:14.278Z,996.52
2022-08-21T06:26:14.221Z,996.48
2022-08-21T06:27:14.146Z,996.44
2022-08-21T06:28:14.085Z,996.48
2022-08-21T06:29:14.027Z,996.46
2022-08-21T06:30:13.970Z,996.49
2022-08-21T06:31:13.913Z,996.46
2022-08-21T06:32:13.829Z,996.41
2022-08-21T06:33:13.773Z,996.42
2022-08-21T06:34:13.715Z,996.38
2022-08-21T06:35:16.050Z,996.40
2022-08-21T06:36:13.567Z,996.41
2022-08-21T06:37:13.517Z,996.45
2022-08-21T06:38:13.448Z,996.41
2022-08-21T06:39:24.785Z,996.44
2022-08-21T06:40:13.378Z,996.42
2022-08-21T06:41:13.268Z,996.44
2022-08-21T06:42:13.202Z,996.42
2022-08-21T06:43:15.186Z,996.41
2022-08-21T06:44:13.057Z,996.42
2022-08-21T06:45:12.994Z,996.44
2022-08-21T06:46:12.947Z,996.44
2022-08-21T06:47:13.152Z,996.36
2022-08-21T06:48:18.373Z,996.42
2022-08-21T06:49:17.501Z,996.44
2022-08-21T06:50:12.701Z,996.45
2022-08-21T06:51:12.629Z,996.45
2022-08-21T06:52:12.596Z,996.38
2022-08-21T06:53:14.823Z,996.39
2022-08-21T06:54:12.449Z,996.35
2022-08-21T06:55:12.376Z,996.33
2022-08-21T06:56:12.303Z,996.35
2022-08-21T06:57:12.258Z,996.35
2022-08-21T06:58:12.181Z,996.33
2022-08-21T06:59:15.467Z,996.31
2022-08-21T07:00:12.045Z,996.36
2022-08-21T07:01:12.024Z,996.33
2022-08-21T07:02:11.938Z,996.35
2022-08-21T07:03:11.870Z,996.33
2022-08-21T07:04:11.817Z,996.31
2022-08-21T07:05:17.677Z,996.32
2022-08-21T07:06:11.676Z,996.28
2022-08-21T07:07:11.620Z,996.28
2022-08-21T07:08:11.551Z,996.24
2022-08-21T07:09:11.518Z,996.26
2022-08-21T07:10:21.677Z,996.28
2022-08-21T07:11:11.385Z,996.22
2022-08-21T07:12:11.312Z,996.26
2022-08-21T07:13:11.229Z,996.20
2022-08-21T07:14:11.180Z,996.21
2022-08-21T07:15:11.115Z,996.17
2022-08-21T07:16:11.062Z,996.21
2022-08-21T07:17:12.839Z,996.17
2022-08-21T07:18:10.924Z,996.19
2022-08-21T07:19:10.860Z,996.18
2022-08-21T07:20:10.806Z,996.10
2022-08-21T07:21:10.747Z,996.09
2022-08-21T07:22:10.688Z,996.07
2022-08-21T07:23:10.631Z,996.13
2022-08-21T07:24:10.552Z,996.12
2022-08-21T07:25:10.505Z,996.02
2022-08-21T07:26:10.445Z,996.03
2022-08-21T07:27:10.390Z,995.98
2022-08-21T07:28:10.300Z,996.00
2022-08-21T07:29:10.241Z,996.00
2022-08-21T07:30:10.173Z,996.05
2022-08-21T07:31:10.107Z,996.02
2022-08-21T07:32:10.067Z,996.03
2022-08-21T07:33:09.983Z,996.01
2022-08-21T07:34:09.921Z,996.02
2022-08-21T07:35:12.215Z,995.98
2022-08-21T07:36:09.796Z,995.99
2022-08-21T07:37:10.005Z,996.01
2022-08-21T07:38:09.671Z,996.01
2022-08-21T07:39:09.627Z,995.98
2022-08-21T07:40:09.577Z,995.98
2022-08-21T07:41:10.297Z,996.02
2022-08-21T07:42:09.437Z,996.02
2022-08-21T07:43:09.363Z,996.01
2022-08-21T07:44:09.299Z,995.98
2022-08-21T07:45:09.265Z,995.95
2022-08-21T07:46:09.189Z,995.98
2022-08-21T07:47:09.136Z,995.97
2022-08-21T07:48:09.061Z,995.94
2022-08-21T07:49:09.049Z,995.94
2022-08-21T07:50:08.930Z,995.88
2022-08-21T07:51:08.868Z,995.90
2022-08-21T07:52:08.817Z,995.89
2022-08-21T07:53:11.061Z,995.88
2022-08-21T07:54:08.692Z,995.92
2022-08-21T07:55:08.622Z,995.86
2022-08-21T07:56:08.560Z,995.88
2022-08-21T07:57:08.507Z,995.84
2022-08-21T07:58:08.438Z,995.79
2022-08-21T07:59:08.389Z,995.80
2022-08-21T08:00:08.308Z,995.78
2022-08-21T08:01:08.310Z,995.79
2022-08-21T08:02:08.201Z,995.76
2022-08-21T08:03:08.130Z,995.77
2022-08-21T08:04:08.055Z,995.72
2022-08-21T08:05:08.024Z,995.73
2022-08-21T08:06:07.936Z,995.70
2022-08-21T08:07:07.881Z,995.73
2022-08-21T08:08:07.849Z,995.73
2022-08-21T08:09:07.751Z,995.72
2022-08-21T08:10:07.704Z,995.71
2022-08-21T08:11:07.661Z,995.69
2022-08-21T08:12:07.570Z,995.69
2022-08-21T08:13:10.423Z,995.68
2022-08-21T08:14:07.470Z,995.68
2022-08-21T08:15:07.379Z,995.73
2022-08-21T08:16:07.327Z,995.78
2022-08-21T08:17:07.553Z,995.77
2022-08-21T08:18:07.190Z,995.81
2022-08-21T08:19:07.150Z,995.78
2022-08-21T08:20:07.075Z,995.76
2022-08-21T08:21:07.020Z,995.70
2022-08-21T08:22:06.969Z,995.70
2022-08-21T08:23:06.903Z,995.74
2022-08-21T08:24:19.271Z,995.68
2022-08-21T08:25:09.478Z,995.65
2022-08-21T08:26:06.701Z,995.68
2022-08-21T08:27:06.654Z,995.62
2022-08-21T08:28:16.159Z,995.62
2022-08-21T08:29:06.538Z,995.66
2022-08-21T08:30:06.467Z,995.62
2022-08-21T08:31:06.391Z,995.60
2022-08-21T08:32:06.330Z,995.60
2022-08-21T08:33:06.274Z,995.60
2022-08-21T08:34:06.208Z,995.57
2022-08-21T08:35:07.352Z,995.56
2022-08-21T08:36:07.963Z,995.56
2022-08-21T08:37:06.037Z,995.48
2022-08-21T08:38:05.983Z,995.47
2022-08-21T08:39:05.927Z,995.53
2022-08-21T08:40:05.863Z,995.55
2022-08-21T08:41:05.802Z,995.57
2022-08-21T08:42:34.017Z,995.53
2022-08-21T08:43:05.674Z,995.52
2022-08-21T08:44:05.596Z,995.51
2022-08-21T08:45:05.544Z,995.51
2022-08-21T08:46:05.466Z,995.48
2022-08-21T08:47:05.431Z,995.49
2022-08-21T08:48:05.366Z,995.47
2022-08-21T08:49:05.296Z,995.46
2022-08-21T08:50:05.224Z,995.47
2022-08-21T08:51:05.168Z,995.49
2022-08-21T08:52:05.099Z,995.39
2022-08-21T08:53:06.278Z,995.48
2022-08-21T08:54:04.989Z,995.44
2022-08-21T08:55:04.931Z,995.43
2022-08-21T08:56:04.859Z,995.39
2022-08-21T08:57:04.827Z,995.41
2022-08-21T08:58:04.740Z,995.40
2022-08-21T08:59:04.712Z,995.40
2022-08-21T09:00:04.625Z,995.39
2022-08-21T09:01:04.615Z,995.40
2022-08-21T09:02:04.504Z,995.38
2022-08-21T09:03:04.431Z,995.42
2022-08-21T09:04:04.366Z,995.45
2022-08-21T09:05:04.350Z,995.39
2022-08-21T09:06:04.257Z,995.44
2022-08-21T09:07:04.199Z,995.39
2022-08-21T09:08:04.141Z,995.40
2022-08-21T09:09:04.081Z,995.38
2022-08-21T09:10:04.017Z,995.35
2022-08-21T09:11:05.166Z,995.38
2022-08-21T09:12:03.881Z,995.37
2022-08-21T09:13:03.835Z,995.34
2022-08-21T09:14:03.781Z,995.38
2022-08-21T09:15:03.709Z,995.28
2022-08-21T09:16:03.647Z,995.32
2022-08-21T09:17:06.436Z,995.28
2022-08-21T09:18:04.629Z,995.26
2022-08-21T09:19:03.464Z,995.29
2022-08-21T09:20:03.403Z,995.22
2022-08-21T09:21:03.329Z,995.23
2022-08-21T09:22:03.270Z,995.28
2022-08-21T09:23:04.751Z,995.30
2022-08-21T09:24:03.159Z,995.30
2022-08-21T09:25:03.114Z,995.29
2022-08-21T09:26:03.033Z,995.27
2022-08-21T09:27:02.974Z,995.29
2022-08-21T09:28:02.918Z,995.24
2022-08-21T09:29:02.855Z,995.30
2022-08-21T09:30:02.797Z,995.24
2022-08-21T09:31:02.738Z,995.27
2022-08-21T09:32:02.665Z,995.25
2022-08-21T09:33:02.619Z,995.27
2022-08-21T09:34:02.555Z,995.29
2022-08-21T09:35:02.508Z,995.33
2022-08-21T09:36:02.433Z,995.22
2022-08-21T09:37:02.377Z,995.28
2022-08-21T09:38:02.291Z,995.30
2022-08-21T09:39:02.234Z,995.34
2022-08-21T09:40:02.288Z,995.28
2022-08-21T09:41:03.344Z,995.25
2022-08-21T09:42:02.046Z,995.21
2022-08-21T09:43:01.998Z,995.22
2022-08-21T09:44:01.927Z,995.20
2022-08-21T09:45:01.868Z,995.19
2022-08-21T09:46:01.814Z,995.22
2022-08-21T09:47:01.770Z,995.22
2022-08-21T09:48:01.707Z,995.22
2022-08-21T09:49:02.100Z,995.24
2022-08-21T09:50:01.579Z,995.20
2022-08-21T09:51:01.517Z,995.19
2022-08-21T09:52:01.437Z,995.19
2022-08-21T09:53:02.178Z,995.21
2022-08-21T09:54:01.313Z,995.14
2022-08-21T09:55:01.253Z,995.25
2022-08-21T09:56:01.192Z,995.23
2022-08-21T09:57:01.140Z,995.20
2022-08-21T09:58:01.083Z,995.27
2022-08-21T09:59:01.787Z,995.26
2022-08-21T10:00:00.953Z,995.26
2022-08-21T10:01:00.982Z,995.24
2022-08-21T10:02:00.834Z,995.27
2022-08-21T10:03:00.771Z,995.19
2022-08-21T10:04:00.695Z,995.15
2022-08-21T10:05:01.438Z,995.15
2022-08-21T10:06:00.568Z,995.11
2022-08-21T10:07:00.505Z,995.14
2022-08-21T10:08:00.464Z,995.09
2022-08-21T10:09:00.397Z,995.15
2022-08-21T10:10:00.333Z,995.11
2022-08-21T10:11:01.056Z,995.10
2022-08-21T10:12:00.198Z,995.08
2022-08-21T10:13:00.322Z,995.04
2022-08-21T10:14:00.090Z,995.05
2022-08-21T10:15:00.020Z,995.03
2022-08-21T10:15:59.959Z,995.11
2022-08-21T10:16:59.942Z,995.12
2022-08-21T10:17:59.833Z,995.01
2022-08-21T10:18:59.776Z,995.07
2022-08-21T10:19:59.732Z,995.02
2022-08-21T10:20:59.641Z,994.97
2022-08-21T10:21:59.573Z,995.00
2022-08-21T10:22:59.793Z,994.95
2022-08-21T10:23:59.464Z,995.03
2022-08-21T10:24:59.392Z,995.07
2022-08-21T10:26:14.239Z,994.99
2022-08-21T10:26:59.291Z,994.97
2022-08-21T10:27:59.225Z,994.96
2022-08-21T10:28:59.180Z,994.96
2022-08-21T10:29:59.082Z,994.96
2022-08-21T10:30:59.021Z,994.96
2022-08-21T10:31:58.973Z,994.94
2022-08-21T10:32:59.088Z,994.92
2022-08-21T10:33:58.849Z,994.88
2022-08-21T10:34:58.806Z,994.91
2022-08-21T10:35:58.739Z,994.90
2022-08-21T10:36:58.659Z,994.91
2022-08-21T10:37:58.596Z,994.92
2022-08-21T10:39:17.728Z,994.90
2022-08-21T10:39:58.558Z,994.88
2022-08-21T10:40:59.209Z,994.86
2022-08-21T10:41:59.595Z,994.86
2022-08-21T10:42:58.490Z,994.83
2022-08-21T10:43:58.256Z,994.85
2022-08-21T10:44:58.180Z,994.83
2022-08-21T10:45:58.104Z,994.80
2022-08-21T10:47:00.378Z,994.81
2022-08-21T10:47:58.422Z,994.83
2022-08-21T10:48:57.925Z,994.83
2022-08-21T10:49:57.875Z,994.76
2022-08-21T10:50:57.814Z,994.79
2022-08-21T10:51:57.761Z,994.79
2022-08-21T10:52:58.002Z,994.77
2022-08-21T10:53:57.636Z,994.77
2022-08-21T10:54:57.553Z,994.75
2022-08-21T10:55:57.511Z,994.77
2022-08-21T10:56:57.446Z,994.80
2022-08-21T10:57:57.382Z,994.78
2022-08-21T10:58:57.657Z,994.75
2022-08-21T10:59:57.254Z,994.74
2022-08-21T11:00:57.225Z,994.69
2022-08-21T11:01:57.141Z,994.66
2022-08-21T11:02:57.201Z,994.67
2022-08-21T11:03:57.001Z,994.67
2022-08-21T11:04:58.151Z,994.65
2022-08-21T11:05:56.884Z,994.67
2022-08-21T11:06:56.842Z,994.67
2022-08-21T11:07:56.924Z,994.64
2022-08-21T11:08:56.716Z,994.65
2022-08-21T11:09:56.656Z,994.63
2022-08-21T11:10:59.149Z,994.67
2022-08-21T11:12:10.637Z,994.73
2022-08-21T11:12:56.481Z,994.74
2022-08-21T11:13:56.397Z,994.66
2022-08-21T11:14:56.349Z,994.61
2022-08-21T11:15:56.285Z,994.62
2022-08-21T11:16:56.242Z,994.60
2022-08-21T11:17:56.156Z,994.62
2022-08-21T11:18:56.119Z,994.56
2022-08-21T11:19:56.036Z,994.54
2022-08-21T11:20:55.983Z,994.56
2022-08-21T11:21:55.914Z,994.58
2022-08-21T11:22:58.914Z,994.58
2022-08-21T11:23:55.805Z,994.56
2022-08-21T11:24:55.741Z,994.59
2022-08-21T11:25:55.676Z,994.58
2022-08-21T11:26:55.653Z,994.57
2022-08-21T11:27:55.545Z,994.59
2022-08-21T11:28:55.493Z,994.57
2022-08-21T11:29:55.422Z,994.59
2022-08-21T11:30:55.348Z,994.55
2022-08-21T11:31:55.297Z,994.53
2022-08-21T11:32:55.267Z,994.51
2022-08-21T11:33:55.175Z,994.53
2022-08-21T11:34:55.149Z,994.57
2022-08-21T11:35:55.053Z,994.56
2022-08-21T11:36:54.991Z,994.53
2022-08-21T11:37:54.922Z,994.55
2022-08-21T11:38:54.861Z,994.53
2022-08-21T11:39:54.841Z,994.52
2022-08-21T11:40:55.514Z,994.54
2022-08-21T11:41:54.670Z,994.47
2022-08-21T11:42:54.646Z,994.51
2022-08-21T11:43:54.567Z,994.56
2022-08-21T11:44:54.502Z,994.54
2022-08-21T11:45:54.444Z,994.51
2022-08-21T11:46:54.412Z,994.51
2022-08-21T11:47:54.316Z,994.48
2022-08-21T11:48:54.247Z,994.47
2022-08-21T11:49:54.203Z,994.52
2022-08-21T11:50:54.132Z,994.48
2022-08-21T11:51:54.054Z,994.49
2022-08-21T11:52:54.007Z,994.48
2022-08-21T11:53:54.476Z,994.45
2022-08-21T11:54:53.885Z,994.40
2022-08-21T11:55:53.819Z,994.39
2022-08-21T11:56:53.762Z,994.41
2022-08-21T11:57:53.686Z,994.37
2022-08-21T11:58:54.411Z,994.34
2022-08-21T11:59:53.568Z,994.32
2022-08-21T12:00:53.496Z,994.39
2022-08-21T12:01:53.574Z,994.46
2022-08-21T12:02:53.380Z,994.40
2022-08-21T12:03:53.316Z,994.40
2022-08-21T12:04:53.267Z,994.42
2022-08-21T12:05:53.197Z,994.39
2022-08-21T12:06:53.133Z,994.40
2022-08-21T12:07:53.070Z,994.45
2022-08-21T12:08:53.027Z,994.45
2022-08-21T12:09:52.964Z,994.42
2022-08-21T12:10:52.905Z,994.46
2022-08-21T12:11:52.839Z,994.49
2022-08-21T12:12:52.796Z,994.43
2022-08-21T12:13:52.725Z,994.37
2022-08-21T12:14:52.663Z,994.40
2022-08-21T12:15:52.580Z,994.34
2022-08-21T12:16:55.854Z,994.30
2022-08-21T12:17:52.450Z,994.30
2022-08-21T12:18:52.424Z,994.33
2022-08-21T12:19:52.331Z,994.31
2022-08-21T12:20:52.293Z,994.26
2022-08-21T12:21:52.220Z,994.29
2022-08-21T12:22:52.194Z,994.27
2022-08-21T12:23:52.088Z,994.32
2022-08-21T12:24:52.025Z,994.28
2022-08-21T12:25:51.960Z,994.30
2022-08-21T12:26:51.922Z,994.28
2022-08-21T12:27:51.862Z,994.34